Alta June — WDE5645 — position and weather

sailwx.info

Track history (hours):
 
Tides and Currents Weather Stations Pressure Air Temp Water Temp Dewpoint Dewpoint Depression Visibility Wind Speed Wind Dir Waves Ship Positions

Alta June

Owner: Foss Maritime Company, Seattle, WA. More information available from US FCC via Universal Licensing System and Coast Guard Vessel Documentation Center.

Last reported at 2017-Oct-28 06:22 UTC. Time now 2017-Nov-19 08:20 UTC.
Position N 33°46' W 118°13'.
Warning: this ship's position is 22 days out of date.

Length 23 m; draft 5 m.

Type: Towing. MMSI: 367369720.

Date/timePositionNaut miles runAvg speedWind from/ knotsBaromVisibWave heightAir tempDewpointWater temp
2017-Oct-28 06:22N 33°46' W 118°13'0 0.0
2017-Oct-28 05:56N 33°46' W 118°13'0 0.0
2017-Oct-28 05:30N 33°46' W 118°13'0 0.0
2017-Oct-28 05:00N 33°46' W 118°13'1 2.4
2017-Oct-28 04:30N 33°46' W 118°15'1 2.0
2017-Oct-28 04:01N 33°46' W 118°16'0 0.0
2017-Oct-28 03:29N 33°46' W 118°16'0 0.2
2017-Oct-28 03:00N 33°46' W 118°16'1 1.9
2017-Oct-28 02:28N 33°46' W 118°14'2 4.2
2017-Oct-28 01:59N 33°45' W 118°13'2 2.6
2017-Oct-28 01:14N 33°43' W 118°11'2 6.7
2017-Oct-28 01:00N 33°42' W 118°11'1 1.2
2017-Oct-28 00:31N 33°42' W 118°11'4 7.0
2017-Oct-27 23:55N 33°43' W 118°16'2 4.8
2017-Oct-27 23:31N 33°45' W 118°16'0 0.0
2017-Oct-27 23:00N 33°45' W 118°16'0 0.0
2017-Oct-27 22:31N 33°45' W 118°16'0 0.0
2017-Oct-27 22:01N 33°45' W 118°16'0 0.0
2017-Oct-27 21:30N 33°45' W 118°16'2 2.9
2017-Oct-27 20:59N 33°44' W 118°16'0 0.0
2017-Oct-27 20:30N 33°44' W 118°16'0 0.0
2017-Oct-27 20:01N 33°44' W 118°16'3 5.1
2017-Oct-27 19:31N 33°44' W 118°13'2 3.3
2017-Oct-27 19:00N 33°46' W 118°13'0 0.0
2017-Oct-27 18:31N 33°46' W 118°13'0 0.0
2017-Oct-27 18:01N 33°46' W 118°13'0 0.0
2017-Oct-27 17:31N 33°46' W 118°13'0 0.0
2017-Oct-27 17:00N 33°46' W 118°13'0 0.6
2017-Oct-27 16:31N 33°45' W 118°13'4 7.2
2017-Oct-27 16:01N 33°43' W 118°16'0 0.1
2017-Oct-27 15:31N 33°43' W 118°16'0 0.7
2017-Oct-27 15:00N 33°43' W 118°17'0 0.0
2017-Oct-27 14:31N 33°43' W 118°17'1 0.6
2017-Oct-27 13:18N 33°43' W 118°16'1 2.1
2017-Oct-27 12:58N 33°44' W 118°16'0 0.8
2017-Oct-27 12:25N 33°44' W 118°15'0 0.2
2017-Oct-27 11:51N 33°44' W 118°15'0 0.0
2017-Oct-27 11:30N 33°44' W 118°15'0 0.0
2017-Oct-27 10:58N 33°44' W 118°15'1 2.8
2017-Oct-27 10:31N 33°45' W 118°16'1 1.5
2017-Oct-27 09:59N 33°46' W 118°17'3 4.8
2017-Oct-27 09:26N 33°46' W 118°13'1 0.6
2017-Oct-27 08:34N 33°46' W 118°13'0 0.0
2017-Oct-27 08:29N 33°46' W 118°13'0 0.5
2017-Oct-27 07:42N 33°46' W 118°13'1 1.4
2017-Oct-27 07:18N 33°46' W 118°13'0 0.0
2017-Oct-27 06:48N 33°46' W 118°13'0 0.0
2017-Oct-27 06:30N 33°46' W 118°13'0 0.0
2017-Oct-27 05:57N 33°46' W 118°13'1 2.8
2017-Oct-27 05:30N 33°46' W 118°15'2 3.2
2017-Oct-27 05:00N 33°45' W 118°16'3 2.2
2017-Oct-27 03:47N 33°43' W 118°14'2 8.2
2017-Oct-27 03:30N 33°44' W 118°16'2 3.5
2017-Oct-27 03:00N 33°46' W 118°16'2 3.2
2017-Oct-27 02:25N 33°46' W 118°13'1 0.7
2017-Oct-27 01:15N 33°45' W 118°13'0 0.0
2017-Oct-27 00:52N 33°45' W 118°13'0 0.0
2017-Oct-27 00:30N 33°45' W 118°13'1 1.3
2017-Oct-27 00:01N 33°45' W 118°13'2 4.0
2017-Oct-26 23:30N 33°44' W 118°11'0 0.9
2017-Oct-26 23:01N 33°44' W 118°11'1 1.7
2017-Oct-26 22:30N 33°45' W 118°10'0 0.0
2017-Oct-26 22:00N 33°45' W 118°10'1 1.9
2017-Oct-26 21:31N 33°44' W 118°11'1 2.1
2017-Oct-26 21:00N 33°44' W 118°12'4 7.3
2017-Oct-26 20:30N 33°44' W 118°16'2 4.9
2017-Oct-26 20:01N 33°46' W 118°16'2 4.4
2017-Oct-26 19:30N 33°46' W 118°13'0 0.0
2017-Oct-26 19:01N 33°46' W 118°13'0 0.3
2017-Oct-26 18:30N 33°46' W 118°13'3 6.4
2017-Oct-26 18:00N 33°43' W 118°15'3 5.2
2017-Oct-26 17:30N 33°45' W 118°16'0 0.6
2017-Oct-26 17:00N 33°45' W 118°16'3 5.2
2017-Oct-26 16:30N 33°43' W 118°14'2 3.9
2017-Oct-26 16:01N 33°45' W 118°12'0 0.0
2017-Oct-26 15:27N 33°45' W 118°12'0 0.0
2017-Oct-26 15:01N 33°45' W 118°12'0 0.0
2017-Oct-26 14:30N 33°45' W 118°12'0 0.0
2017-Oct-26 14:01N 33°45' W 118°12'0 0.0
2017-Oct-26 11:18N 33°45' W 118°12'4 5.0
2017-Oct-26 10:29N 33°44' W 118°16'2 4.7
2017-Oct-26 10:00N 33°46' W 118°16'0 0.7
2017-Oct-26 09:30N 33°46' W 118°16'2 3.5
2017-Oct-26 09:00N 33°44' W 118°15'0 0.0
2017-Oct-26 08:30N 33°44' W 118°15'1 1.3
2017-Oct-26 07:59N 33°43' W 118°16'3 5.4
2017-Oct-26 07:30N 33°46' W 118°16'2 2.5
2017-Oct-26 06:43N 33°46' W 118°13'0 0.2
2017-Oct-26 05:52N 33°46' W 118°13'0 0.0
2017-Oct-26 05:13N 33°46' W 118°13'3 8.1
2017-Oct-26 04:53N 33°43' W 118°14'1 3.5
2017-Oct-26 04:31N 33°44' W 118°15'0 0.8
2017-Oct-26 04:00N 33°44' W 118°15'1 2.8
2017-Oct-26 03:31N 33°45' W 118°16'1 1.2
2017-Oct-26 03:01N 33°45' W 118°16'0 0.0
2017-Oct-26 02:30N 33°45' W 118°16'2 3.2
2017-Oct-26 01:54N 33°43' W 118°15'3 6.7
2017-Oct-26 01:31N 33°45' W 118°14'0 0.2
2017-Oct-26 01:01N 33°45' W 118°14'1 1.2
2017-Oct-26 00:30N 33°45' W 118°13'0 0.0
2017-Oct-26 00:00N 33°45' W 118°13'0 0.0
2017-Oct-25 23:31N 33°45' W 118°13'0 0.0
2017-Oct-25 23:00N 33°45' W 118°13'0 0.0
2017-Oct-25 22:30N 33°45' W 118°13'1 2.6
2017-Oct-25 21:59N 33°45' W 118°12'0 0.9
2017-Oct-25 21:31N 33°44' W 118°12'1 1.1
2017-Oct-25 20:41N 33°44' W 118°12'1 6.2
2017-Oct-25 20:30N 33°44' W 118°13'1 2.7
2017-Oct-25 20:00N 33°46' W 118°13'0 0.0
2017-Oct-25 19:30N 33°46' W 118°13'0 0.0
2017-Oct-25 19:00N 33°46' W 118°13'3 6.7
2017-Oct-25 18:31N 33°43' W 118°15'1 1.9
2017-Oct-25 18:01N 33°44' W 118°15'2 3.0
2017-Oct-25 17:30N 33°45' W 118°16'1 1.7
2017-Oct-25 17:00N 33°45' W 118°16'0 0.0
2017-Oct-25 16:30N 33°45' W 118°16'1 2.7
2017-Oct-25 16:01N 33°46' W 118°16'3 5.2
2017-Oct-25 15:30N 33°43' W 118°16'2 4.5
2017-Oct-25 15:00N 33°46' W 118°17'0 0.2
2017-Oct-25 14:31N 33°46' W 118°17'0 0.2
2017-Oct-25 14:01N 33°46' W 118°17'0 0.0
2017-Oct-25 13:30N 33°46' W 118°17'0 0.5
2017-Oct-25 13:00N 33°45' W 118°16'0 0.6
2017-Oct-25 12:27N 33°45' W 118°16'1 1.9
2017-Oct-25 11:56N 33°44' W 118°17'0 0.5
2017-Oct-25 11:30N 33°44' W 118°16'2 3.3
2017-Oct-25 11:00N 33°45' W 118°16'1 1.0
2017-Oct-25 10:30N 33°45' W 118°16'3 2.2
2017-Oct-25 09:19N 33°43' W 118°14'3 6.1
2017-Oct-25 08:51N 33°46' W 118°13'0 0.1
2017-Oct-25 08:09N 33°46' W 118°13'0 0.0
2017-Oct-25 06:00N 33°46' W 118°13'0 0.0
2017-Oct-25 05:16N 33°46' W 118°13'0 0.0
2017-Oct-25 03:08N 33°46' W 118°13'1 3.7
2017-Oct-25 02:53N 33°45' W 118°13'1 1.9
2017-Oct-25 02:19N 33°44' W 118°12'2 6.0
2017-Oct-25 02:00N 33°46' W 118°13'0 0.0
2017-Oct-25 01:29N 33°46' W 118°13'0 0.0
2017-Oct-25 01:00N 33°46' W 118°13'1 2.8
2017-Oct-25 00:30N 33°44' W 118°13'2 4.6
2017-Oct-25 00:00N 33°44' W 118°10'3 4.6
2017-Oct-24 23:27N 33°43' W 118°13'3 5.7
2017-Oct-24 22:59N 33°43' W 118°16'2 5.0
2017-Oct-24 22:30N 33°46' W 118°16'2 3.7
2017-Oct-24 22:00N 33°46' W 118°14'3 6.1
2017-Oct-24 21:30N 33°44' W 118°11'2 3.3
2017-Oct-24 20:59N 33°43' W 118°13'1 1.3
2017-Oct-24 20:30N 33°44' W 118°13'2 4.5
2017-Oct-24 20:01N 33°46' W 118°13'1 1.2
2017-Oct-24 19:30N 33°46' W 118°13'0 0.0
2017-Oct-24 18:59N 33°46' W 118°13'0 0.0
2017-Oct-24 18:30N 33°46' W 118°13'0 1.0
2017-Oct-24 18:00N 33°45' W 118°13'0 0.0
2017-Oct-24 17:29N 33°45' W 118°13'0 0.0
2017-Oct-24 16:59N 33°45' W 118°13'0 0.0
2017-Oct-24 16:30N 33°45' W 118°13'2 3.6
2017-Oct-24 16:00N 33°44' W 118°12'0 0.5
2017-Oct-24 15:22N 33°44' W 118°12'0 0.6
2017-Oct-24 15:00N 33°44' W 118°12'0 0.2
2017-Oct-24 14:25N 33°44' W 118°12'1 0.5
2017-Oct-24 13:00N 33°44' W 118°12'0 0.6
2017-Oct-24 12:19N 33°44' W 118°12'1 0.7
2017-Oct-24 10:54N 33°45' W 118°13'0 0.2
2017-Oct-24 09:13N 33°45' W 118°13'1 0.1
2017-Oct-24 01:15N 33°46' W 118°13'0 0.0
2017-Oct-24 00:59N 33°46' W 118°13'0 0.0
2017-Oct-24 00:30N 33°46' W 118°13'0 0.0
2017-Oct-24 00:00N 33°46' W 118°13'0 0.0
2017-Oct-23 23:30N 33°46' W 118°13'0 0.9
2017-Oct-23 23:00N 33°46' W 118°13'0 0.0
2017-Oct-23 22:23N 33°46' W 118°13'1 2.1
2017-Oct-23 22:00N 33°46' W 118°13'4 3.8
2017-Oct-23 20:56N 33°43' W 118°10'4 8.1
2017-Oct-23 20:30N 33°45' W 118°13'1 1.2
2017-Oct-23 20:00N 33°46' W 118°13'0 0.0
2017-Oct-23 19:29N 33°46' W 118°13'0 0.0
2017-Oct-23 19:00N 33°46' W 118°13'0 0.0
2017-Oct-23 18:30N 33°46' W 118°13'0 0.0
2017-Oct-23 18:00N 33°46' W 118°13'0 0.0
2017-Oct-23 17:30N 33°46' W 118°13'0 0.0
2017-Oct-23 17:00N 33°46' W 118°13'1 2.9
2017-Oct-23 16:30N 33°44' W 118°13'3 5.1
2017-Oct-23 16:00N 33°43' W 118°16'3 4.3
2017-Oct-23 15:21N 33°46' W 118°16'0 0.0
2017-Oct-23 04:50N 33°46' W 118°16'0 0.2
2017-Oct-23 04:17N 33°46' W 118°16'0 0.0
2017-Oct-23 03:56N 33°46' W 118°16'0 0.0
2017-Oct-23 03:18N 33°46' W 118°16'0 0.0
2017-Oct-23 02:30N 33°46' W 118°16'0 0.0
2017-Oct-23 01:49N 33°46' W 118°16'0 1.0
2017-Oct-23 01:26N 33°45' W 118°16'0 0.2
2017-Oct-23 00:56N 33°45' W 118°16'2 4.8
2017-Oct-23 00:29N 33°43' W 118°16'3 6.5
2017-Oct-23 00:00N 33°45' W 118°13'1 1.9
2017-Oct-22 23:30N 33°46' W 118°13'0 0.1
2017-Oct-22 23:00N 33°46' W 118°13'2 4.6
2017-Oct-22 22:30N 33°45' W 118°16'1 2.0
2017-Oct-22 21:57N 33°44' W 118°17'2 4.8
2017-Oct-22 21:29N 33°43' W 118°15'3 5.2
2017-Oct-22 20:59N 33°45' W 118°13'1 1.9
2017-Oct-22 20:24N 33°46' W 118°13'0 0.0
2017-Oct-22 20:00N 33°46' W 118°13'0 0.0
2017-Oct-22 19:30N 33°46' W 118°13'0 0.0
2017-Oct-22 18:49N 33°46' W 118°13'0 0.0
2017-Oct-22 18:26N 33°46' W 118°13'0 0.0
2017-Oct-22 17:59N 33°46' W 118°13'2 4.0
2017-Oct-22 17:30N 33°46' W 118°15'1 2.1
2017-Oct-22 17:00N 33°45' W 118°16'1 2.1
2017-Oct-22 16:26N 33°46' W 118°16'0 0.3
2017-Oct-22 15:57N 33°46' W 118°16'0 0.0
2017-Oct-22 01:19N 33°46' W 118°16'0 0.0
2017-Oct-22 01:00N 33°46' W 118°16'1 0.4
2017-Oct-21 23:08N 33°46' W 118°17'0 0.1
2017-Oct-21 22:33N 33°45' W 118°17'0 0.0
2017-Oct-21 22:27N 33°45' W 118°17'0 0.6
2017-Oct-21 21:42N 33°45' W 118°16'1 3.0
2017-Oct-21 21:28N 33°46' W 118°16'2 2.3
2017-Oct-21 20:49N 33°44' W 118°17'4 4.3
2017-Oct-21 19:53N 33°45' W 118°12'2 2.0
2017-Oct-21 19:05N 33°46' W 118°13'0 0.0
2017-Oct-21 18:57N 33°46' W 118°13'0 0.0
2017-Oct-21 18:28N 33°46' W 118°13'0 0.0
2017-Oct-21 17:58N 33°46' W 118°13'0 0.0
2017-Oct-21 17:30N 33°46' W 118°13'0 0.0
2017-Oct-21 16:44N 33°46' W 118°13'0 0.0
2017-Oct-21 16:27N 33°46' W 118°13'4 3.7
2017-Oct-21 15:30N 33°43' W 118°16'4 0.4
2017-Oct-21 07:21N 33°46' W 118°13'2 0.3
2017-Oct-21 01:20N 33°44' W 118°13'2 0.5
2017-Oct-20 21:43N 33°46' W 118°13'0 0.0
2017-Oct-20 21:21N 33°46' W 118°13'0 0.0
2017-Oct-20 20:48N 33°46' W 118°13'0 0.0
2017-Oct-20 20:28N 33°46' W 118°13'0 0.0
2017-Oct-20 19:36N 33°46' W 118°13'0 0.0
2017-Oct-20 19:25N 33°46' W 118°13'0 0.0
2017-Oct-20 18:49N 33°46' W 118°13'0 0.0
2017-Oct-20 18:25N 33°46' W 118°13'1 1.5
2017-Oct-20 17:54N 33°46' W 118°13'0 0.9
2017-Oct-20 17:29N 33°46' W 118°13'0 0.0
2017-Oct-20 16:58N 33°46' W 118°13'1 2.5
2017-Oct-20 16:29N 33°45' W 118°13'2 0.7
2017-Oct-20 13:13N 33°46' W 118°16'1 0.1
2017-Oct-20 01:17N 33°45' W 118°15'0 0.1
2017-Oct-20 00:52N 33°45' W 118°15'1 1.4
2017-Oct-20 00:11N 33°46' W 118°14'1 5.8
2017-Oct-20 00:00N 33°46' W 118°16'0 0.4
2017-Oct-19 23:21N 33°46' W 118°16'0 0.0
2017-Oct-19 23:00N 33°46' W 118°16'0 0.1
2017-Oct-19 22:30N 33°46' W 118°16'2 4.8
2017-Oct-19 22:00N 33°43' W 118°16'3 5.7
2017-Oct-19 21:25N 33°45' W 118°13'1 1.6
2017-Oct-19 20:55N 33°46' W 118°13'0 0.0
2017-Oct-19 20:05N 33°46' W 118°13'1 0.3
2017-Oct-19 18:10N 33°46' W 118°13'0 0.0
2017-Oct-19 17:49N 33°46' W 118°13'1 1.5
2017-Oct-19 17:29N 33°46' W 118°13'3 3.7
2017-Oct-19 16:47N 33°44' W 118°14'2 5.9
2017-Oct-19 16:30N 33°43' W 118°15'3 2.4
2017-Oct-19 15:16N 33°46' W 118°16'1 0.7
2017-Oct-19 13:33N 33°45' W 118°16'1 0.1
2017-Oct-19 02:18N 33°46' W 118°16'0 0.0
2017-Oct-19 01:56N 33°46' W 118°16'3 5.6
2017-Oct-19 01:22N 33°43' W 118°14'2 6.3
2017-Oct-19 00:59N 33°44' W 118°12'1 2.5
2017-Oct-19 00:30N 33°44' W 118°13'0 0.1
2017-Oct-18 23:59N 33°44' W 118°13'0 0.4
2017-Oct-18 23:25N 33°43' W 118°13'1 3.5
2017-Oct-18 23:00N 33°44' W 118°12'0 0.0
2017-Oct-18 22:20N 33°44' W 118°12'1 1.2
2017-Oct-18 21:36N 33°45' W 118°13'0 0.2
2017-Oct-18 21:22N 33°45' W 118°13'1 1.1
2017-Oct-18 20:25N 33°44' W 118°12'2 4.7
2017-Oct-18 19:59N 33°46' W 118°13'2 3.1
2017-Oct-18 19:23N 33°46' W 118°15'2 2.9
2017-Oct-18 18:48N 33°44' W 118°17'2 6.3
2017-Oct-18 18:28N 33°43' W 118°15'4 7.9
2017-Oct-18 17:56N 33°44' W 118°10'3 5.7
2017-Oct-18 17:27N 33°43' W 118°13'3 6.1
2017-Oct-18 16:59N 33°44' W 118°16'2 3.9
2017-Oct-18 16:26N 33°46' W 118°16'0 0.0
2017-Oct-18 16:00N 33°46' W 118°16'1 1.6
2017-Oct-18 15:19N 33°46' W 118°14'1 0.3
2017-Oct-18 12:29N 33°45' W 118°14'0 0.1
2017-Oct-18 11:59N 33°45' W 118°14'1 0.6
2017-Oct-18 10:35N 33°45' W 118°13'0 6.6
2017-Oct-18 10:30N 33°46' W 118°13'  
Track history (hours):
 
Tides and Currents Weather Stations Pressure Air Temp Water Temp Dewpoint Dewpoint Depression Visibility Wind Speed Wind Dir Waves Ship Positions

Alta June

Owner: Foss Maritime Company, Seattle, WA. More information available from US FCC via Universal Licensing System and Coast Guard Vessel Documentation Center.

Last reported at 2017-Oct-28 06:22 UTC. Time now 2017-Nov-19 08:20 UTC.
Position N 33°46' W 118°13'.
Warning: this ship's position is 22 days out of date.

Length 23 m; draft 5 m.

Type: Towing. MMSI: 367369720.

Date/timePositionNaut miles runAvg speedWind from/ knotsBaromVisibWave heightAir tempDewpointWater temp
2017-Oct-28 06:22N 33°46' W 118°13'0 0.0
2017-Oct-28 05:56N 33°46' W 118°13'0 0.0
2017-Oct-28 05:30N 33°46' W 118°13'0 0.0
2017-Oct-28 05:00N 33°46' W 118°13'1 2.4
2017-Oct-28 04:30N 33°46' W 118°15'1 2.0
2017-Oct-28 04:01N 33°46' W 118°16'0 0.0
2017-Oct-28 03:29N 33°46' W 118°16'0 0.2
2017-Oct-28 03:00N 33°46' W 118°16'1 1.9
2017-Oct-28 02:28N 33°46' W 118°14'2 4.2
2017-Oct-28 01:59N 33°45' W 118°13'2 2.6
2017-Oct-28 01:14N 33°43' W 118°11'2 6.7
2017-Oct-28 01:00N 33°42' W 118°11'1 1.2
2017-Oct-28 00:31N 33°42' W 118°11'4 7.0
2017-Oct-27 23:55N 33°43' W 118°16'2 4.8
2017-Oct-27 23:31N 33°45' W 118°16'0 0.0
2017-Oct-27 23:00N 33°45' W 118°16'0 0.0
2017-Oct-27 22:31N 33°45' W 118°16'0 0.0
2017-Oct-27 22:01N 33°45' W 118°16'0 0.0
2017-Oct-27 21:30N 33°45' W 118°16'2 2.9
2017-Oct-27 20:59N 33°44' W 118°16'0 0.0
2017-Oct-27 20:30N 33°44' W 118°16'0 0.0
2017-Oct-27 20:01N 33°44' W 118°16'3 5.1
2017-Oct-27 19:31N 33°44' W 118°13'2 3.3
2017-Oct-27 19:00N 33°46' W 118°13'0 0.0
2017-Oct-27 18:31N 33°46' W 118°13'0 0.0
2017-Oct-27 18:01N 33°46' W 118°13'0 0.0
2017-Oct-27 17:31N 33°46' W 118°13'0 0.0
2017-Oct-27 17:00N 33°46' W 118°13'0 0.6
2017-Oct-27 16:31N 33°45' W 118°13'4 7.2
2017-Oct-27 16:01N 33°43' W 118°16'0 0.1
2017-Oct-27 15:31N 33°43' W 118°16'0 0.7
2017-Oct-27 15:00N 33°43' W 118°17'0 0.0
2017-Oct-27 14:31N 33°43' W 118°17'1 0.6
2017-Oct-27 13:18N 33°43' W 118°16'1 2.1
2017-Oct-27 12:58N 33°44' W 118°16'0 0.8
2017-Oct-27 12:25N 33°44' W 118°15'0 0.2
2017-Oct-27 11:51N 33°44' W 118°15'0 0.0
2017-Oct-27 11:30N 33°44' W 118°15'0 0.0
2017-Oct-27 10:58N 33°44' W 118°15'1 2.8
2017-Oct-27 10:31N 33°45' W 118°16'1 1.5
2017-Oct-27 09:59N 33°46' W 118°17'3 4.8
2017-Oct-27 09:26N 33°46' W 118°13'1 0.6
2017-Oct-27 08:34N 33°46' W 118°13'0 0.0
2017-Oct-27 08:29N 33°46' W 118°13'0 0.5
2017-Oct-27 07:42N 33°46' W 118°13'1 1.4
2017-Oct-27 07:18N 33°46' W 118°13'0 0.0
2017-Oct-27 06:48N 33°46' W 118°13'0 0.0
2017-Oct-27 06:30N 33°46' W 118°13'0 0.0
2017-Oct-27 05:57N 33°46' W 118°13'1 2.8
2017-Oct-27 05:30N 33°46' W 118°15'2 3.2
2017-Oct-27 05:00N 33°45' W 118°16'3 2.2
2017-Oct-27 03:47N 33°43' W 118°14'2 8.2
2017-Oct-27 03:30N 33°44' W 118°16'2 3.5
2017-Oct-27 03:00N 33°46' W 118°16'2 3.2
2017-Oct-27 02:25N 33°46' W 118°13'1 0.7
2017-Oct-27 01:15N 33°45' W 118°13'0 0.0
2017-Oct-27 00:52N 33°45' W 118°13'0 0.0
2017-Oct-27 00:30N 33°45' W 118°13'1 1.3
2017-Oct-27 00:01N 33°45' W 118°13'2 4.0
2017-Oct-26 23:30N 33°44' W 118°11'0 0.9
2017-Oct-26 23:01N 33°44' W 118°11'1 1.7
2017-Oct-26 22:30N 33°45' W 118°10'0 0.0
2017-Oct-26 22:00N 33°45' W 118°10'1 1.9
2017-Oct-26 21:31N 33°44' W 118°11'1 2.1
2017-Oct-26 21:00N 33°44' W 118°12'4 7.3
2017-Oct-26 20:30N 33°44' W 118°16'2 4.9
2017-Oct-26 20:01N 33°46' W 118°16'2 4.4
2017-Oct-26 19:30N 33°46' W 118°13'0 0.0
2017-Oct-26 19:01N 33°46' W 118°13'0 0.3
2017-Oct-26 18:30N 33°46' W 118°13'3 6.4
2017-Oct-26 18:00N 33°43' W 118°15'3 5.2
2017-Oct-26 17:30N 33°45' W 118°16'0 0.6
2017-Oct-26 17:00N 33°45' W 118°16'3 5.2
2017-Oct-26 16:30N 33°43' W 118°14'2 3.9
2017-Oct-26 16:01N 33°45' W 118°12'0 0.0
2017-Oct-26 15:27N 33°45' W 118°12'0 0.0
2017-Oct-26 15:01N 33°45' W 118°12'0 0.0
2017-Oct-26 14:30N 33°45' W 118°12'0 0.0
2017-Oct-26 14:01N 33°45' W 118°12'0 0.0
2017-Oct-26 11:18N 33°45' W 118°12'4 5.0
2017-Oct-26 10:29N 33°44' W 118°16'2 4.7
2017-Oct-26 10:00N 33°46' W 118°16'0 0.7
2017-Oct-26 09:30N 33°46' W 118°16'2 3.5
2017-Oct-26 09:00N 33°44' W 118°15'0 0.0
2017-Oct-26 08:30N 33°44' W 118°15'1 1.3
2017-Oct-26 07:59N 33°43' W 118°16'3 5.4
2017-Oct-26 07:30N 33°46' W 118°16'2 2.5
2017-Oct-26 06:43N 33°46' W 118°13'0 0.2
2017-Oct-26 05:52N 33°46' W 118°13'0 0.0
2017-Oct-26 05:13N 33°46' W 118°13'3 8.1
2017-Oct-26 04:53N 33°43' W 118°14'1 3.5
2017-Oct-26 04:31N 33°44' W 118°15'0 0.8
2017-Oct-26 04:00N 33°44' W 118°15'1 2.8
2017-Oct-26 03:31N 33°45' W 118°16'1 1.2
2017-Oct-26 03:01N 33°45' W 118°16'0 0.0
2017-Oct-26 02:30N 33°45' W 118°16'2 3.2
2017-Oct-26 01:54N 33°43' W 118°15'3 6.7
2017-Oct-26 01:31N 33°45' W 118°14'0 0.2
2017-Oct-26 01:01N 33°45' W 118°14'1 1.2
2017-Oct-26 00:30N 33°45' W 118°13'0 0.0
2017-Oct-26 00:00N 33°45' W 118°13'0 0.0
2017-Oct-25 23:31N 33°45' W 118°13'0 0.0
2017-Oct-25 23:00N 33°45' W 118°13'0 0.0
2017-Oct-25 22:30N 33°45' W 118°13'1 2.6
2017-Oct-25 21:59N 33°45' W 118°12'0 0.9
2017-Oct-25 21:31N 33°44' W 118°12'1 1.1
2017-Oct-25 20:41N 33°44' W 118°12'1 6.2
2017-Oct-25 20:30N 33°44' W 118°13'1 2.7
2017-Oct-25 20:00N 33°46' W 118°13'0 0.0
2017-Oct-25 19:30N 33°46' W 118°13'0 0.0
2017-Oct-25 19:00N 33°46' W 118°13'3 6.7
2017-Oct-25 18:31N 33°43' W 118°15'1 1.9
2017-Oct-25 18:01N 33°44' W 118°15'2 3.0
2017-Oct-25 17:30N 33°45' W 118°16'1 1.7
2017-Oct-25 17:00N 33°45' W 118°16'0 0.0
2017-Oct-25 16:30N 33°45' W 118°16'1 2.7
2017-Oct-25 16:01N 33°46' W 118°16'3 5.2
2017-Oct-25 15:30N 33°43' W 118°16'2 4.5
2017-Oct-25 15:00N 33°46' W 118°17'0 0.2
2017-Oct-25 14:31N 33°46' W 118°17'0 0.2
2017-Oct-25 14:01N 33°46' W 118°17'0 0.0
2017-Oct-25 13:30N 33°46' W 118°17'0 0.5
2017-Oct-25 13:00N 33°45' W 118°16'0 0.6
2017-Oct-25 12:27N 33°45' W 118°16'1 1.9
2017-Oct-25 11:56N 33°44' W 118°17'0 0.5
2017-Oct-25 11:30N 33°44' W 118°16'2 3.3
2017-Oct-25 11:00N 33°45' W 118°16'1 1.0
2017-Oct-25 10:30N 33°45' W 118°16'3 2.2
2017-Oct-25 09:19N 33°43' W 118°14'3 6.1
2017-Oct-25 08:51N 33°46' W 118°13'0 0.1
2017-Oct-25 08:09N 33°46' W 118°13'0 0.0
2017-Oct-25 06:00N 33°46' W 118°13'0 0.0
2017-Oct-25 05:16N 33°46' W 118°13'0 0.0
2017-Oct-25 03:08N 33°46' W 118°13'1 3.7
2017-Oct-25 02:53N 33°45' W 118°13'1 1.9
2017-Oct-25 02:19N 33°44' W 118°12'2 6.0
2017-Oct-25 02:00N 33°46' W 118°13'0 0.0
2017-Oct-25 01:29N 33°46' W 118°13'0 0.0
2017-Oct-25 01:00N 33°46' W 118°13'1 2.8
2017-Oct-25 00:30N 33°44' W 118°13'2 4.6
2017-Oct-25 00:00N 33°44' W 118°10'3 4.6
2017-Oct-24 23:27N 33°43' W 118°13'3 5.7
2017-Oct-24 22:59N 33°43' W 118°16'2 5.0
2017-Oct-24 22:30N 33°46' W 118°16'2 3.7
2017-Oct-24 22:00N 33°46' W 118°14'3 6.1
2017-Oct-24 21:30N 33°44' W 118°11'2 3.3
2017-Oct-24 20:59N 33°43' W 118°13'1 1.3
2017-Oct-24 20:30N 33°44' W 118°13'2 4.5
2017-Oct-24 20:01N 33°46' W 118°13'1 1.2
2017-Oct-24 19:30N 33°46' W 118°13'0 0.0
2017-Oct-24 18:59N 33°46' W 118°13'0 0.0
2017-Oct-24 18:30N 33°46' W 118°13'0 1.0
2017-Oct-24 18:00N 33°45' W 118°13'0 0.0
2017-Oct-24 17:29N 33°45' W 118°13'0 0.0
2017-Oct-24 16:59N 33°45' W 118°13'0 0.0
2017-Oct-24 16:30N 33°45' W 118°13'2 3.6
2017-Oct-24 16:00N 33°44' W 118°12'0 0.5
2017-Oct-24 15:22N 33°44' W 118°12'0 0.6
2017-Oct-24 15:00N 33°44' W 118°12'0 0.2
2017-Oct-24 14:25N 33°44' W 118°12'1 0.5
2017-Oct-24 13:00N 33°44' W 118°12'0 0.6
2017-Oct-24 12:19N 33°44' W 118°12'1 0.7
2017-Oct-24 10:54N 33°45' W 118°13'0 0.2
2017-Oct-24 09:13N 33°45' W 118°13'1 0.1
2017-Oct-24 01:15N 33°46' W 118°13'0 0.0
2017-Oct-24 00:59N 33°46' W 118°13'0 0.0
2017-Oct-24 00:30N 33°46' W 118°13'0 0.0
2017-Oct-24 00:00N 33°46' W 118°13'0 0.0
2017-Oct-23 23:30N 33°46' W 118°13'0 0.9
2017-Oct-23 23:00N 33°46' W 118°13'0 0.0
2017-Oct-23 22:23N 33°46' W 118°13'1 2.1
2017-Oct-23 22:00N 33°46' W 118°13'4 3.8
2017-Oct-23 20:56N 33°43' W 118°10'4 8.1
2017-Oct-23 20:30N 33°45' W 118°13'1 1.2
2017-Oct-23 20:00N 33°46' W 118°13'0 0.0
2017-Oct-23 19:29N 33°46' W 118°13'0 0.0
2017-Oct-23 19:00N 33°46' W 118°13'0 0.0
2017-Oct-23 18:30N 33°46' W 118°13'0 0.0
2017-Oct-23 18:00N 33°46' W 118°13'0 0.0
2017-Oct-23 17:30N 33°46' W 118°13'0 0.0
2017-Oct-23 17:00N 33°46' W 118°13'1 2.9
2017-Oct-23 16:30N 33°44' W 118°13'3 5.1
2017-Oct-23 16:00N 33°43' W 118°16'3 4.3
2017-Oct-23 15:21N 33°46' W 118°16'0 0.0
2017-Oct-23 04:50N 33°46' W 118°16'0 0.2
2017-Oct-23 04:17N 33°46' W 118°16'0 0.0
2017-Oct-23 03:56N 33°46' W 118°16'0 0.0
2017-Oct-23 03:18N 33°46' W 118°16'0 0.0
2017-Oct-23 02:30N 33°46' W 118°16'0 0.0
2017-Oct-23 01:49N 33°46' W 118°16'0 1.0
2017-Oct-23 01:26N 33°45' W 118°16'0 0.2
2017-Oct-23 00:56N 33°45' W 118°16'2 4.8
2017-Oct-23 00:29N 33°43' W 118°16'3 6.5
2017-Oct-23 00:00N 33°45' W 118°13'1 1.9
2017-Oct-22 23:30N 33°46' W 118°13'0 0.1
2017-Oct-22 23:00N 33°46' W 118°13'2 4.6
2017-Oct-22 22:30N 33°45' W 118°16'1 2.0
2017-Oct-22 21:57N 33°44' W 118°17'2 4.8
2017-Oct-22 21:29N 33°43' W 118°15'3 5.2
2017-Oct-22 20:59N 33°45' W 118°13'1 1.9
2017-Oct-22 20:24N 33°46' W 118°13'0 0.0
2017-Oct-22 20:00N 33°46' W 118°13'0 0.0
2017-Oct-22 19:30N 33°46' W 118°13'0 0.0
2017-Oct-22 18:49N 33°46' W 118°13'0 0.0
2017-Oct-22 18:26N 33°46' W 118°13'0 0.0
2017-Oct-22 17:59N 33°46' W 118°13'2 4.0
2017-Oct-22 17:30N 33°46' W 118°15'1 2.1
2017-Oct-22 17:00N 33°45' W 118°16'1 2.1
2017-Oct-22 16:26N 33°46' W 118°16'0 0.3
2017-Oct-22 15:57N 33°46' W 118°16'0 0.0
2017-Oct-22 01:19N 33°46' W 118°16'0 0.0
2017-Oct-22 01:00N 33°46' W 118°16'1 0.4
2017-Oct-21 23:08N 33°46' W 118°17'0 0.1
2017-Oct-21 22:33N 33°45' W 118°17'0 0.0
2017-Oct-21 22:27N 33°45' W 118°17'0 0.6
2017-Oct-21 21:42N 33°45' W 118°16'1 3.0
2017-Oct-21 21:28N 33°46' W 118°16'2 2.3
2017-Oct-21 20:49N 33°44' W 118°17'4 4.3
2017-Oct-21 19:53N 33°45' W 118°12'2 2.0
2017-Oct-21 19:05N 33°46' W 118°13'0 0.0
2017-Oct-21 18:57N 33°46' W 118°13'0 0.0
2017-Oct-21 18:28N 33°46' W 118°13'0 0.0
2017-Oct-21 17:58N 33°46' W 118°13'0 0.0
2017-Oct-21 17:30N 33°46' W 118°13'0 0.0
2017-Oct-21 16:44N 33°46' W 118°13'0 0.0
2017-Oct-21 16:27N 33°46' W 118°13'4 3.7
2017-Oct-21 15:30N 33°43' W 118°16'4 0.4
2017-Oct-21 07:21N 33°46' W 118°13'2 0.3
2017-Oct-21 01:20N 33°44' W 118°13'2 0.5
2017-Oct-20 21:43N 33°46' W 118°13'0 0.0
2017-Oct-20 21:21N 33°46' W 118°13'0 0.0
2017-Oct-20 20:48N 33°46' W 118°13'0 0.0
2017-Oct-20 20:28N 33°46' W 118°13'0 0.0
2017-Oct-20 19:36N 33°46' W 118°13'0 0.0
2017-Oct-20 19:25N 33°46' W 118°13'0 0.0
2017-Oct-20 18:49N 33°46' W 118°13'0 0.0
2017-Oct-20 18:25N 33°46' W 118°13'1 1.5
2017-Oct-20 17:54N 33°46' W 118°13'0 0.9
2017-Oct-20 17:29N 33°46' W 118°13'0 0.0
2017-Oct-20 16:58N 33°46' W 118°13'1 2.5
2017-Oct-20 16:29N 33°45' W 118°13'2 0.7
2017-Oct-20 13:13N 33°46' W 118°16'1 0.1
2017-Oct-20 01:17N 33°45' W 118°15'0 0.1
2017-Oct-20 00:52N 33°45' W 118°15'1 1.4
2017-Oct-20 00:11N 33°46' W 118°14'1 5.8
2017-Oct-20 00:00N 33°46' W 118°16'0 0.4
2017-Oct-19 23:21N 33°46' W 118°16'0 0.0
2017-Oct-19 23:00N 33°46' W 118°16'0 0.1
2017-Oct-19 22:30N 33°46' W 118°16'2 4.8
2017-Oct-19 22:00N 33°43' W 118°16'3 5.7
2017-Oct-19 21:25N 33°45' W 118°13'1 1.6
2017-Oct-19 20:55N 33°46' W 118°13'0 0.0
2017-Oct-19 20:05N 33°46' W 118°13'1 0.3
2017-Oct-19 18:10N 33°46' W 118°13'0 0.0
2017-Oct-19 17:49N 33°46' W 118°13'1 1.5
2017-Oct-19 17:29N 33°46' W 118°13'3 3.7
2017-Oct-19 16:47N 33°44' W 118°14'2 5.9
2017-Oct-19 16:30N 33°43' W 118°15'3 2.4
2017-Oct-19 15:16N 33°46' W 118°16'1 0.7
2017-Oct-19 13:33N 33°45' W 118°16'1 0.1
2017-Oct-19 02:18N 33°46' W 118°16'0 0.0
2017-Oct-19 01:56N 33°46' W 118°16'3 5.6
2017-Oct-19 01:22N 33°43' W 118°14'2 6.3
2017-Oct-19 00:59N 33°44' W 118°12'1 2.5
2017-Oct-19 00:30N 33°44' W 118°13'0 0.1
2017-Oct-18 23:59N 33°44' W 118°13'0 0.4
2017-Oct-18 23:25N 33°43' W 118°13'1 3.5
2017-Oct-18 23:00N 33°44' W 118°12'0 0.0
2017-Oct-18 22:20N 33°44' W 118°12'1 1.2
2017-Oct-18 21:36N 33°45' W 118°13'0 0.2
2017-Oct-18 21:22N 33°45' W 118°13'1 1.1
2017-Oct-18 20:25N 33°44' W 118°12'2 4.7
2017-Oct-18 19:59N 33°46' W 118°13'2 3.1
2017-Oct-18 19:23N 33°46' W 118°15'2 2.9
2017-Oct-18 18:48N 33°44' W 118°17'2 6.3
2017-Oct-18 18:28N 33°43' W 118°15'4 7.9
2017-Oct-18 17:56N 33°44' W 118°10'3 5.7
2017-Oct-18 17:27N 33°43' W 118°13'3 6.1
2017-Oct-18 16:59N 33°44' W 118°16'2 3.9
2017-Oct-18 16:26N 33°46' W 118°16'0 0.0
2017-Oct-18 16:00N 33°46' W 118°16'1 1.6
2017-Oct-18 15:19N 33°46' W 118°14'1 0.3
2017-Oct-18 12:29N 33°45' W 118°14'0 0.1
2017-Oct-18 11:59N 33°45' W 118°14'1 0.6
2017-Oct-18 10:35N 33°45' W 118°13'0 6.6
2017-Oct-18 10:30N 33°46' W 118°13'  

Dump ship's entire track history